Time;durP1;ratioP1;P1;durP2;ratioP2;P2;SDS_P1;SDS_P2;PMS_P1;PMS_P2;Temp;Humidity;BMP_temperature;BMP_pressure;BME280_temperature;BME280_humidity;BME280_pressure;Samples;Min_cycle;Max_cycle;Signal;HPM_P1;HPM_P2
2023/06/09 00:00:07;;;;;;;6.00;3.78;;;;;;;;;;12980885;19;20021;-60
2023/06/09 00:04:26;;;;;;;5.60;3.67;;;;;;;;;;12980994;19;20014;-61
2023/06/09 00:08:44;;;;;;;5.82;3.92;;;;;;;;;;12980592;19;20014;-61
2023/06/09 00:13:02;;;;;;;4.72;3.50;;;;;;;;;;12979818;19;20017;-62
2023/06/09 00:17:24;;;;;;;6.13;3.95;;;;;;;;;;12979405;19;20006;-60
2023/06/09 00:21:49;;;;;;;5.72;4.10;;;;;;;;;;12980348;19;20011;-61
2023/06/09 00:26:08;;;;;;;6.78;4.47;;;;;;;;;;12979427;19;20011;-62
2023/06/09 00:30:26;;;;;;;5.90;4.30;;;;;;;;;;12979829;19;20011;-61
2023/06/09 00:34:56;;;;;;;6.25;4.10;;;;;;;;;;12977586;19;20025;-61
2023/06/09 00:39:14;;;;;;;6.10;3.65;;;;;;;;;;12978496;19;20344;-61
2023/06/09 00:43:33;;;;;;;6.50;3.88;;;;;;;;;;12978668;19;20010;-61
2023/06/09 00:47:51;;;;;;;5.07;3.50;;;;;;;;;;12978458;19;20022;-61
2023/06/09 00:52:10;;;;;;;4.80;3.30;;;;;;;;;;12975471;19;20022;-61
2023/06/09 00:56:29;;;;;;;4.80;3.83;;;;;;;;;;12988471;19;20034;-62
2023/06/09 01:00:48;;;;;;;5.13;3.08;;;;;;;;;;12989908;19;20027;-61
2023/06/09 01:05:08;;;;;;;3.95;2.65;;;;;;;;;;12992437;19;20462;-61
2023/06/09 01:09:41;;;;;;;4.72;3.08;;;;;;;;;;12989844;19;20484;-61
2023/06/09 01:14:09;;;;;;;5.40;3.22;;;;;;;;;;12989914;19;20010;-62
2023/06/09 01:18:30;;;;;;;5.22;3.65;;;;;;;;;;12986413;19;20354;-61
2023/06/09 01:23:04;;;;;;;6.60;3.97;;;;;;;;;;12987789;19;20018;-62
2023/06/09 01:27:25;;;;;;;4.70;3.35;;;;;;;;;;12986917;19;20374;-62
2023/06/09 01:31:44;;;;;;;4.85;3.13;;;;;;;;;;12987893;19;20010;-61
2023/06/09 01:36:04;;;;;;;4.30;3.28;;;;;;;;;;12988992;19;20029;-62
2023/06/09 01:40:22;;;;;;;4.75;3.33;;;;;;;;;;12988269;19;20375;-62
2023/06/09 01:44:40;;;;;;;5.10;3.13;;;;;;;;;;12988267;19;20031;-62
2023/06/09 01:49:14;;;;;;;6.80;4.10;;;;;;;;;;12985917;19;20022;-62
2023/06/09 01:53:37;;;;;;;5.95;3.53;;;;;;;;;;12986587;19;20046;-62
2023/06/09 01:58:11;;;;;;;8.15;3.63;;;;;;;;;;12985434;19;20014;-63
2023/06/09 02:02:32;;;;;;;6.15;4.10;;;;;;;;;;12985162;19;20017;-62
2023/06/09 02:06:51;;;;;;;6.18;3.78;;;;;;;;;;12985357;19;20014;-62
2023/06/09 02:11:10;;;;;;;5.63;4.00;;;;;;;;;;12985667;19;20022;-63
2023/06/09 02:15:29;;;;;;;6.20;4.22;;;;;;;;;;12986957;19;20356;-62
2023/06/09 02:19:47;;;;;;;;;;;;;;;;;;12987372;19;20011;-62
2023/06/09 02:24:06;;;;;;;7.15;3.88;;;;;;;;;;12985208;19;19931;-62
2023/06/09 02:28:23;;;;;;;6.53;3.80;;;;;;;;;;12982768;19;20021;-63
2023/06/09 02:32:42;;;;;;;6.90;4.10;;;;;;;;;;12985459;19;20014;-63
2023/06/09 02:37:02;;;;;;;7.75;4.25;;;;;;;;;;12984832;19;20023;-61
2023/06/09 02:41:20;;;;;;;9.43;4.45;;;;;;;;;;12985377;19;20014;-62
2023/06/09 02:45:38;;;;;;;5.72;3.78;;;;;;;;;;12984593;19;20380;-62
2023/06/09 02:49:57;;;;;;;6.30;3.85;;;;;;;;;;12983255;19;20472;-61
2023/06/09 02:54:14;;;;;;;5.88;4.10;;;;;;;;;;12983276;19;20018;-61
2023/06/09 02:58:34;;;;;;;5.53;3.70;;;;;;;;;;12984363;19;20014;-61
2023/06/09 03:02:52;;;;;;;6.95;3.95;;;;;;;;;;12983437;19;20354;-62
2023/06/09 03:07:13;;;;;;;6.40;4.07;;;;;;;;;;12983219;19;20358;-62
2023/06/09 03:11:32;;;;;;;7.20;3.67;;;;;;;;;;12983649;19;20014;-63
2023/06/09 03:15:50;;;;;;;;;;;;;;;;;;12981388;19;20030;-62
2023/06/09 03:20:09;;;;;;;6.82;3.55;;;;;;;;;;12982391;19;20257;-63
2023/06/09 03:24:27;;;;;;;5.95;3.78;;;;;;;;;;12982718;19;20043;-62
2023/06/09 03:28:46;;;;;;;4.93;3.83;;;;;;;;;;12981328;19;20026;-62
2023/06/09 03:33:05;;;;;;;5.60;3.92;;;;;;;;;;12980932;19;20368;-62
2023/06/09 03:37:24;;;;;;;5.63;3.70;;;;;;;;;;12981986;19;20516;-62
2023/06/09 03:41:42;;;;;;;5.32;3.78;;;;;;;;;;12982160;19;20021;-62
2023/06/09 03:46:01;;;;;;;5.45;3.75;;;;;;;;;;12981151;19;20011;-66
2023/06/09 03:50:20;;;;;;;6.47;3.92;;;;;;;;;;12982560;19;20470;-62
2023/06/09 03:54:38;;;;;;;6.32;3.95;;;;;;;;;;12982531;19;20431;-62
2023/06/09 03:58:57;;;;;;;6.70;4.75;;;;;;;;;;12980691;19;20015;-62
2023/06/09 04:03:15;;;;;;;6.97;4.28;;;;;;;;;;12980998;19;20549;-62
2023/06/09 04:07:33;;;;;;;5.90;4.20;;;;;;;;;;12982337;19;20078;-63
2023/06/09 04:11:50;;;;;;;4.85;3.83;;;;;;;;;;12981066;19;20026;-62
2023/06/09 04:16:09;;;;;;;6.60;4.45;;;;;;;;;;12980010;19;20027;-62
2023/06/09 04:20:27;;;;;;;6.10;3.60;;;;;;;;;;12981051;19;20470;-63
2023/06/09 04:24:46;;;;;;;6.60;4.35;;;;;;;;;;12979556;19;20030;-63
2023/06/09 04:29:04;;;;;;;;;;;;;;;;;;12987272;19;20010;-62
2023/06/09 04:33:23;;;;;;;4.90;3.75;;;;;;;;;;12989184;19;20021;-62
2023/06/09 04:37:43;;;;;;;10.40;3.75;;;;;;;;;;12991876;19;20115;-62
2023/06/09 04:42:03;;;;;;;6.20;4.78;;;;;;;;;;12991624;19;20015;-64
2023/06/09 04:46:24;;;;;;;5.82;3.67;;;;;;;;;;12991710;19;20632;-62
2023/06/09 04:50:44;;;;;;;5.15;3.97;;;;;;;;;;12990734;19;20007;-61
2023/06/09 04:55:03;;;;;;;6.25;4.07;;;;;;;;;;12989713;19;20015;-61
2023/06/09 04:59:21;;;;;;;4.57;3.92;;;;;;;;;;12989987;19;20378;-62
2023/06/09 05:03:40;;;;;;;5.63;4.18;;;;;;;;;;12989945;19;20011;-62
2023/06/09 05:07:59;;;;;;;4.80;3.53;;;;;;;;;;12989595;19;20007;-61
2023/06/09 05:12:17;;;;;;;5.60;3.75;;;;;;;;;;12988412;19;20015;-61
2023/06/09 05:16:35;;;;;;;;;;;;;;;;;;12989552;19;20018;-62
2023/06/09 05:20:53;;;;;;;5.00;3.70;;;;;;;;;;12988954;19;20262;-62
2023/06/09 05:25:14;;;;;;;7.68;4.40;;;;;;;;;;12988703;19;20021;-62
2023/06/09 05:29:34;;;;;;;5.63;3.50;;;;;;;;;;12989001;19;20030;-62
2023/06/09 05:33:52;;;;;;;4.32;3.42;;;;;;;;;;12990057;19;20019;-62
2023/06/09 05:38:11;;;;;;;5.28;3.58;;;;;;;;;;12986991;19;20034;-62
2023/06/09 05:42:29;;;;;;;5.88;4.15;;;;;;;;;;12989116;19;20018;-62
2023/06/09 05:46:47;;;;;;;6.43;4.10;;;;;;;;;;12988942;19;20018;-62
2023/06/09 05:51:05;;;;;;;;;;;;;;;;;;12988224;19;20015;-63
2023/06/09 05:55:23;;;;;;;5.47;3.70;;;;;;;;;;12988112;19;19942;-62
2023/06/09 05:59:42;;;;;;;6.95;5.00;;;;;;;;;;12987912;19;20375;-62
2023/06/09 06:04:01;;;;;;;5.65;4.05;;;;;;;;;;12986931;19;20043;-62
2023/06/09 06:08:20;;;;;;;6.80;4.32;;;;;;;;;;12988073;19;20018;-61
2023/06/09 06:12:39;;;;;;;6.97;5.07;;;;;;;;;;12987986;19;20014;-62
2023/06/09 06:17:01;;;;;;;6.05;3.83;;;;;;;;;;12986758;19;20097;-62
2023/06/09 06:21:20;;;;;;;6.88;4.00;;;;;;;;;;12986773;19;20018;-62
2023/06/09 06:25:41;;;;;;;5.03;2.83;;;;;;;;;;12986388;19;20011;-62
2023/06/09 06:29:59;;;;;;;5.28;3.83;;;;;;;;;;12985182;19;20326;-61
2023/06/09 06:34:17;;;;;;;6.35;4.47;;;;;;;;;;12985552;19;20018;-62
2023/06/09 06:38:35;;;;;;;8.27;4.93;;;;;;;;;;12986434;19;20006;-63
2023/06/09 06:42:54;;;;;;;8.90;4.97;;;;;;;;;;12985701;19;20006;-63
2023/06/09 06:47:12;;;;;;;6.20;3.60;;;;;;;;;;12984597;19;20030;-62
2023/06/09 06:51:31;;;;;;;7.35;4.28;;;;;;;;;;12984523;19;20015;-62
2023/06/09 06:55:49;;;;;;;;;;;;;;;;;;12986059;19;20026;-62
2023/06/09 07:00:12;;;;;;;6.28;3.90;;;;;;;;;;12984637;19;19919;-62
2023/06/09 07:04:29;;;;;;;8.40;4.80;;;;;;;;;;12985114;19;20021;-62
2023/06/09 07:08:49;;;;;;;13.68;5.03;;;;;;;;;;12984676;19;20015;-63
2023/06/09 07:13:09;;;;;;;8.32;4.20;;;;;;;;;;12982874;19;20007;-63
2023/06/09 07:17:27;;;;;;;8.52;5.18;;;;;;;;;;12982185;19;20018;-62
2023/06/09 07:21:45;;;;;;;5.70;3.95;;;;;;;;;;12983961;19;20010;-62
2023/06/09 07:26:07;;;;;;;6.32;4.57;;;;;;;;;;12982569;19;20485;-63
2023/06/09 07:30:24;;;;;;;8.57;3.55;;;;;;;;;;12982617;19;20569;-61
2023/06/09 07:34:43;;;;;;;6.55;4.50;;;;;;;;;;12983314;19;20570;-62
2023/06/09 07:39:02;;;;;;;;;;;;;;;;;;12982951;19;20014;-62
2023/06/09 07:43:22;;;;;;;5.43;3.85;;;;;;;;;;12983256;19;19937;-62
2023/06/09 07:47:40;;;;;;;5.65;4.47;;;;;;;;;;12983007;19;20477;-62
2023/06/09 07:51:59;;;;;;;6.90;5.25;;;;;;;;;;12981613;19;20028;-62
2023/06/09 07:56:26;;;;;;;5.72;4.00;;;;;;;;;;12982119;19;20011;-62
2023/06/09 08:00:45;;;;;;;7.55;3.97;;;;;;;;;;12981329;19;20444;-62
2023/06/09 08:05:05;;;;;;;6.75;3.95;;;;;;;;;;12992803;19;20031;-62
2023/06/09 08:09:26;;;;;;;5.03;3.97;;;;;;;;;;12993756;19;20486;-62
2023/06/09 08:13:45;;;;;;;7.15;4.30;;;;;;;;;;12993753;19;20010;-62
2023/06/09 08:18:02;;;;;;;4.75;3.70;;;;;;;;;;12991842;19;20018;-62
2023/06/09 08:22:22;;;;;;;7.25;3.42;;;;;;;;;;12993305;19;20029;-62
2023/06/09 08:26:40;;;;;;;;;;;;;;;;;;12993406;19;20010;-62
2023/06/09 08:30:58;;;;;;;5.18;4.30;;;;;;;;;;12992423;19;19926;-63
2023/06/09 08:35:22;;;;;;;4.65;3.45;;;;;;;;;;12993371;19;20035;-62
2023/06/09 08:39:41;;;;;;;4.25;3.35;;;;;;;;;;12993655;19;20011;-62
2023/06/09 08:44:01;;;;;;;4.82;3.63;;;;;;;;;;12992788;19;20038;-62
2023/06/09 08:48:21;;;;;;;5.70;3.92;;;;;;;;;;12991644;19;20169;-62
2023/06/09 08:52:39;;;;;;;6.43;4.28;;;;;;;;;;12989170;19;20034;-62
2023/06/09 08:56:57;;;;;;;7.28;4.32;;;;;;;;;;12990084;19;20029;-63
2023/06/09 09:01:18;;;;;;;4.38;3.17;;;;;;;;;;12991360;19;20018;-63
2023/06/09 09:05:39;;;;;;;4.25;3.33;;;;;;;;;;12991202;19;20025;-62
2023/06/09 09:09:59;;;;;;;4.35;3.28;;;;;;;;;;12988811;19;20549;-63
2023/06/09 09:14:17;;;;;;;3.40;2.55;;;;;;;;;;12987910;19;20021;-62
2023/06/09 09:18:36;;;;;;;4.80;3.30;;;;;;;;;;12989398;19;20011;-62
2023/06/09 09:22:54;;;;;;;4.40;3.13;;;;;;;;;;12990568;19;20110;-63
2023/06/09 09:27:19;;;;;;;;;;;;;;;;;;12990434;19;20484;-62
2023/06/09 09:31:41;;;;;;;7.40;3.70;;;;;;;;;;12989279;19;19935;-62
2023/06/09 09:36:00;;;;;;;5.07;3.55;;;;;;;;;;12989956;19;20030;-63
2023/06/09 09:40:19;;;;;;;5.07;3.15;;;;;;;;;;12989006;19;20011;-62
2023/06/09 09:44:40;;;;;;;5.32;3.28;;;;;;;;;;12987323;19;20454;-63
2023/06/09 09:49:01;;;;;;;5.50;2.95;;;;;;;;;;12989049;19;20007;-62
2023/06/09 09:53:23;;;;;;;6.05;3.28;;;;;;;;;;12987580;19;20031;-62
2023/06/09 09:57:44;;;;;;;5.70;3.53;;;;;;;;;;12988194;19;20038;-62
2023/06/09 10:02:02;;;;;;;4.75;3.50;;;;;;;;;;12985415;19;20014;-66
2023/06/09 10:06:27;;;;;;;4.80;4.05;;;;;;;;;;12988185;19;20011;-62
2023/06/09 10:10:46;;;;;;;4.90;3.42;;;;;;;;;;12988002;19;20018;-62
2023/06/09 10:15:08;;;;;;;4.45;2.83;;;;;;;;;;12985697;19;20018;-63
2023/06/09 10:19:28;;;;;;;3.72;2.92;;;;;;;;;;12986682;19;20014;-62
2023/06/09 10:23:46;;;;;;;3.55;2.70;;;;;;;;;;12986000;19;20052;-62
2023/06/09 10:28:07;;;;;;;5.30;3.42;;;;;;;;;;12983573;19;20023;-64
2023/06/09 10:32:27;;;;;;;4.35;2.72;;;;;;;;;;12984266;19;20343;-62
2023/06/09 10:36:46;;;;;;;3.47;2.60;;;;;;;;;;12984907;19;20021;-62
2023/06/09 10:41:12;;;;;;;4.30;2.03;;;;;;;;;;12985609;19;20021;-62
2023/06/09 10:45:56;;;;;;;3.55;2.70;;;;;;;;;;12985828;19;20019;-63
2023/06/09 10:50:40;;;;;;;2.90;2.50;;;;;;;;;;12984903;19;20407;-62
2023/06/09 10:55:15;;;;;;;3.50;2.60;;;;;;;;;;12985415;19;20025;-62
2023/06/09 10:59:37;;;;;;;3.92;2.72;;;;;;;;;;12985750;19;20382;-62
2023/06/09 11:03:54;;;;;;;8.20;2.80;;;;;;;;;;12986063;19;20015;-62
2023/06/09 11:08:13;;;;;;;4.18;3.00;;;;;;;;;;12985173;19;20014;-62
2023/06/09 11:12:44;;;;;;;4.25;2.92;;;;;;;;;;12984610;19;20510;-62
2023/06/09 11:17:40;;;;;;;3.63;2.58;;;;;;;;;;12981042;19;20014;-62
2023/06/09 11:22:02;;;;;;;4.23;2.53;;;;;;;;;;12983849;19;20442;-62
2023/06/09 11:26:25;;;;;;;3.88;2.10;;;;;;;;;;12980820;19;20011;-63
2023/06/09 11:31:05;;;;;;;5.03;2.42;;;;;;;;;;12982716;19;20757;-62
2023/06/09 11:35:30;;;;;;;4.95;2.65;;;;;;;;;;12983489;19;20871;-62
2023/06/09 11:39:49;;;;;;;3.97;2.70;;;;;;;;;;12980697;19;20113;-62
2023/06/09 11:44:07;;;;;;;3.78;2.58;;;;;;;;;;12980886;19;20029;-62
2023/06/09 11:48:25;;;;;;;4.25;2.88;;;;;;;;;;12982853;19;20006;-62
2023/06/09 11:52:44;;;;;;;;;;;;;;;;;;12982445;19;20018;-62
2023/06/09 11:57:02;;;;;;;4.28;2.55;;;;;;;;;;12982344;19;19930;-62
2023/06/09 12:01:30;;;;;;;8.25;3.15;;;;;;;;;;12981292;19;20010;-62
2023/06/09 12:05:51;;;;;;;6.55;2.60;;;;;;;;;;12981145;19;20018;-62
2023/06/09 12:10:12;;;;;;;2.97;2.35;;;;;;;;;;12980925;19;20035;-62
2023/06/09 12:14:32;;;;;;;3.45;2.40;;;;;;;;;;12981216;19;20119;-62
2023/06/09 12:18:50;;;;;;;2.85;2.33;;;;;;;;;;12980308;19;20010;-62
2023/06/09 12:23:13;;;;;;;2.85;1.30;;;;;;;;;;12980854;19;20033;-62
2023/06/09 12:27:35;;;;;;;2.95;2.30;;;;;;;;;;12981611;19;20015;-62
2023/06/09 12:31:53;;;;;;;5.95;2.45;;;;;;;;;;12978104;19;20010;-62
2023/06/09 12:36:11;;;;;;;2.95;2.10;;;;;;;;;;12980059;19;20381;-63
2023/06/09 12:40:54;;;;;;;3.05;2.47;;;;;;;;;;12980058;19;20039;-62
2023/06/09 12:45:15;;;;;;;2.78;2.58;;;;;;;;;;12979972;19;20014;-62
2023/06/09 12:49:34;;;;;;;5.82;2.33;;;;;;;;;;12986769;19;20018;-62
2023/06/09 12:53:55;;;;;;;3.50;2.47;;;;;;;;;;12991317;19;20014;-62
2023/06/09 12:58:12;;;;;;;5.88;2.55;;;;;;;;;;12991689;19;20017;-62
2023/06/09 13:02:33;;;;;;;3.65;2.30;;;;;;;;;;12991262;19;20011;-63
2023/06/09 13:06:53;;;;;;;4.90;2.03;;;;;;;;;;12991127;19;20007;-62
2023/06/09 13:11:11;;;;;;;3.70;2.92;;;;;;;;;;12989693;19;20038;-62
2023/06/09 13:15:30;;;;;;;4.15;2.30;;;;;;;;;;12990485;19;20018;-62
2023/06/09 13:19:47;;;;;;;;;;;;;;;;;;12992220;19;20015;-62
2023/06/09 13:24:05;;;;;;;7.70;2.38;;;;;;;;;;12990682;19;19915;-62
2023/06/09 13:28:24;;;;;;;2.70;2.10;;;;;;;;;;12991106;19;20370;-62
2023/06/09 13:32:42;;;;;;;4.15;2.28;;;;;;;;;;12989486;19;20049;-63
2023/06/09 13:37:00;;;;;;;2.75;2.10;;;;;;;;;;12989711;19;20026;-65
2023/06/09 13:41:18;;;;;;;;;;;;;;;;;;12989948;19;20014;-65
2023/06/09 13:45:38;;;;;;;5.10;2.92;;;;;;;;;;12987907;19;20359;-65
2023/06/09 13:49:57;;;;;;;7.60;2.10;;;;;;;;;;12988574;19;20010;-65
2023/06/09 13:54:15;;;;;;;;;;;;;;;;;;12988061;19;20014;-65
2023/06/09 14:01:33;;;;;;;4.00;1.88;;;;;;;;;;13023042;19;20293;-64
2023/06/09 14:05:52;;;;;;;4.60;2.00;;;;;;;;;;13034799;19;20018;-65
2023/06/09 14:10:10;;;;;;;;;;;;;;;;;;13043301;19;20021;-65
2023/06/09 14:21:06;;;;;;;4.57;1.80;;;;;;;;;;13023274;19;20407;-66
2023/06/09 14:25:26;;;;;;;6.68;2.00;;;;;;;;;;13023569;19;20675;-66
2023/06/09 14:44:16;;;;;;;10.05;3.72;;;;;;;;;;13023267;19;20352;-66
2023/06/09 14:48:34;;;;;;;4.95;2.25;;;;;;;;;;13026196;19;20015;-65
2023/06/09 14:52:55;;;;;;;4.38;2.25;;;;;;;;;;13026492;19;20025;-65
2023/06/09 14:57:13;;;;;;;4.82;3.17;;;;;;;;;;13026157;19;20025;-65
2023/06/09 15:01:31;;;;;;;7.88;4.68;;;;;;;;;;13026030;19;20039;-65
2023/06/09 15:05:49;;;;;;;3.25;2.08;;;;;;;;;;13025325;19;20014;-66
2023/06/09 15:10:07;;;;;;;4.45;1.73;;;;;;;;;;13025187;19;20014;-66
2023/06/09 15:14:25;;;;;;;9.15;2.13;;;;;;;;;;13025329;19;20022;-66
2023/06/09 15:18:43;;;;;;;2.45;1.73;;;;;;;;;;13026341;19;20408;-66
2023/06/09 15:23:04;;;;;;;6.50;2.22;;;;;;;;;;13039701;19;20011;-66
2023/06/09 15:27:22;;;;;;;4.93;1.42;;;;;;;;;;13043064;19;20018;-66
2023/06/09 15:31:40;;;;;;;3.63;1.45;;;;;;;;;;13042480;19;20780;-65
2023/06/09 15:35:58;;;;;;;;;;;;;;;;;;13043435;19;20020;-65
2023/06/09 15:40:16;;;;;;;4.72;1.77;;;;;;;;;;13041555;19;20988;-65
2023/06/09 15:44:33;;;;;;;1.67;1.38;;;;;;;;;;13042558;19;20006;-65
2023/06/09 15:48:53;;;;;;;;;;;;;;;;;;13043122;19;20010;-66
2023/06/09 15:53:19;;;;;;;3.30;1.83;;;;;;;;;;13018237;19;20269;-66
2023/06/09 15:57:37;;;;;;;6.00;1.58;;;;;;;;;;12989156;19;20015;-65
2023/06/09 16:01:56;;;;;;;3.92;1.67;;;;;;;;;;12989151;19;20006;-66
2023/06/09 16:06:14;;;;;;;2.85;1.60;;;;;;;;;;12988022;19;20406;-66
2023/06/09 16:10:36;;;;;;;4.95;2.30;;;;;;;;;;12988085;19;20022;-65
2023/06/09 16:14:56;;;;;;;4.95;2.60;;;;;;;;;;12989299;19;20006;-65
2023/06/09 16:19:15;;;;;;;5.35;2.95;;;;;;;;;;12987564;19;20018;-65
2023/06/09 16:23:32;;;;;;;4.80;2.88;;;;;;;;;;12985084;19;20354;-65
2023/06/09 16:27:50;;;;;;;2.75;1.73;;;;;;;;;;12987242;19;20023;-65
2023/06/09 16:32:08;;;;;;;2.13;1.42;;;;;;;;;;12987166;19;20540;-65
2023/06/09 16:36:27;;;;;;;2.30;1.65;;;;;;;;;;12987314;19;20017;-65
2023/06/09 16:40:44;;;;;;;2.80;1.70;;;;;;;;;;12987136;19;20021;-65
2023/06/09 16:45:03;;;;;;;;;;;;;;;;;;12988751;19;20489;-65
2023/06/09 16:49:21;;;;;;;2.83;1.60;;;;;;;;;;12986613;19;19934;-65
2023/06/09 16:53:39;;;;;;;2.60;1.60;;;;;;;;;;12986373;19;20014;-65
2023/06/09 16:57:57;;;;;;;4.85;1.75;;;;;;;;;;12985435;19;20371;-65
2023/06/09 17:02:15;;;;;;;3.15;2.05;;;;;;;;;;12984057;19;20481;-65
2023/06/09 17:06:33;;;;;;;2.10;1.75;;;;;;;;;;12982443;19;20477;-65
2023/06/09 17:10:51;;;;;;;1.95;1.60;;;;;;;;;;12985700;19;20379;-65
2023/06/09 17:15:09;;;;;;;;;;;;;;;;;;12983217;19;20498;-65
2023/06/09 17:19:28;;;;;;;5.10;2.90;;;;;;;;;;12985136;19;20220;-65
2023/06/09 17:23:45;;;;;;;3.53;2.67;;;;;;;;;;12982529;19;20035;-65
2023/06/09 17:28:03;;;;;;;;;;;;;;;;;;12985060;19;20019;-65
2023/06/09 17:32:21;;;;;;;;;;;;;;;;;;12985827;19;19946;-65
2023/06/09 17:36:38;;;;;;;2.30;1.60;;;;;;;;;;12985059;19;19919;-65
2023/06/09 17:40:57;;;;;;;2.38;1.85;;;;;;;;;;12983958;19;20017;-65
2023/06/09 17:45:14;;;;;;;;;;;;;;;;;;12985456;19;20010;-65
2023/06/09 17:49:33;;;;;;;3.00;2.40;;;;;;;;;;12984947;19;19918;-64
2023/06/09 17:53:53;;;;;;;3.38;2.08;;;;;;;;;;12984087;19;20409;-64
2023/06/09 17:58:11;;;;;;;3.10;2.08;;;;;;;;;;12983090;19;20006;-65
2023/06/09 18:02:29;;;;;;;3.13;1.98;;;;;;;;;;12983022;19;20010;-65
2023/06/09 18:06:47;;;;;;;2.60;2.22;;;;;;;;;;12983147;19;20406;-64
2023/06/09 18:11:06;;;;;;;2.92;2.05;;;;;;;;;;12983449;19;20038;-65
2023/06/09 18:15:24;;;;;;;4.93;2.42;;;;;;;;;;12981769;19;20340;-64
2023/06/09 18:19:42;;;;;;;4.45;2.45;;;;;;;;;;12982700;19;20378;-64
2023/06/09 18:24:01;;;;;;;6.18;2.92;;;;;;;;;;12982082;19;20832;-64
2023/06/09 18:28:19;;;;;;;8.90;2.53;;;;;;;;;;12982459;19;20010;-65
2023/06/09 18:32:38;;;;;;;3.60;2.40;;;;;;;;;;12982700;19;20403;-64
2023/06/09 18:36:57;;;;;;;4.10;2.55;;;;;;;;;;12982520;19;20038;-64
2023/06/09 18:41:15;;;;;;;3.55;2.78;;;;;;;;;;12981606;19;20010;-65
2023/06/09 18:45:33;;;;;;;4.32;2.47;;;;;;;;;;12982030;19;20011;-64
2023/06/09 18:49:51;;;;;;;3.15;2.25;;;;;;;;;;12981563;19;20014;-64
2023/06/09 18:54:11;;;;;;;3.97;2.47;;;;;;;;;;12980151;19;20022;-65
2023/06/09 18:58:30;;;;;;;4.10;2.70;;;;;;;;;;12980266;19;20018;-64
2023/06/09 19:02:48;;;;;;;2.72;2.05;;;;;;;;;;12980001;19;20049;-64
2023/06/09 19:07:06;;;;;;;2.75;2.10;;;;;;;;;;12979446;19;20082;-64
2023/06/09 19:11:25;;;;;;;2.95;2.45;;;;;;;;;;12979981;19;20413;-65
2023/06/09 19:15:43;;;;;;;3.67;2.50;;;;;;;;;;12980837;19;20030;-64
2023/06/09 19:20:01;;;;;;;4.15;3.00;;;;;;;;;;12979778;19;20017;-66
2023/06/09 19:24:19;;;;;;;4.60;3.08;;;;;;;;;;12979953;19;20010;-65
2023/06/09 19:28:37;;;;;;;5.25;3.22;;;;;;;;;;12985257;19;20006;-64
2023/06/09 19:32:56;;;;;;;8.65;4.25;;;;;;;;;;12992400;19;20477;-64
2023/06/09 19:37:13;;;;;;;;;;;;;;;;;;12991955;19;20015;-65
2023/06/09 19:41:33;;;;;;;7.65;3.95;;;;;;;;;;12991450;19;19925;-64
2023/06/09 19:45:51;;;;;;;4.20;3.03;;;;;;;;;;12991813;19;20033;-64
2023/06/09 19:50:10;;;;;;;3.28;2.67;;;;;;;;;;12990077;19;20466;-65
2023/06/09 19:54:29;;;;;;;4.80;3.13;;;;;;;;;;12991541;19;20134;-64
2023/06/09 19:58:47;;;;;;;7.55;3.33;;;;;;;;;;12990778;19;20011;-64
2023/06/09 20:03:05;;;;;;;4.63;3.97;;;;;;;;;;12988078;19;20478;-65
2023/06/09 20:07:24;;;;;;;5.10;3.53;;;;;;;;;;12989725;19;20010;-64
2023/06/09 20:11:43;;;;;;;6.85;4.18;;;;;;;;;;12990006;19;20015;-64
2023/06/09 20:16:03;;;;;;;6.32;3.90;;;;;;;;;;12988624;19;20432;-65
2023/06/09 20:20:22;;;;;;;5.25;3.20;;;;;;;;;;12987708;19;20034;-64
2023/06/09 20:24:41;;;;;;;5.43;3.75;;;;;;;;;;12987944;19;20411;-64
2023/06/09 20:28:59;;;;;;;6.30;4.85;;;;;;;;;;12987887;19;20022;-64
2023/06/09 20:33:17;;;;;;;5.93;4.07;;;;;;;;;;12989133;19;20010;-65
2023/06/09 20:37:35;;;;;;;7.00;3.88;;;;;;;;;;12989605;19;20014;-64
2023/06/09 20:41:53;;;;;;;8.85;3.85;;;;;;;;;;12986691;19;20006;-64
2023/06/09 20:46:12;;;;;;;3.67;3.08;;;;;;;;;;12988675;19;20011;-65
2023/06/09 20:50:31;;;;;;;6.72;4.05;;;;;;;;;;12988830;19;20473;-65
2023/06/09 20:54:51;;;;;;;4.35;3.80;;;;;;;;;;12987908;19;20025;-64
2023/06/09 20:59:09;;;;;;;4.80;3.40;;;;;;;;;;12986549;19;20017;-64
2023/06/09 21:03:27;;;;;;;5.88;3.60;;;;;;;;;;12986533;19;20031;-65
2023/06/09 21:07:47;;;;;;;5.03;4.18;;;;;;;;;;12987039;19;20015;-64
2023/06/09 21:12:06;;;;;;;5.47;3.85;;;;;;;;;;12986435;19;20014;-65
2023/06/09 21:16:25;;;;;;;7.50;4.20;;;;;;;;;;12986940;19;20044;-64
2023/06/09 21:20:43;;;;;;;5.80;3.90;;;;;;;;;;12985788;19;20049;-64
2023/06/09 21:25:00;;;;;;;;;;;;;;;;;;12985979;19;20014;-64
2023/06/09 21:29:19;;;;;;;5.40;3.90;;;;;;;;;;12985673;19;20412;-65
2023/06/09 21:33:37;;;;;;;5.90;4.22;;;;;;;;;;12986598;19;20011;-65
2023/06/09 21:37:56;;;;;;;6.35;3.97;;;;;;;;;;12986061;19;20014;-65
2023/06/09 21:42:17;;;;;;;5.78;4.50;;;;;;;;;;12983581;19;20010;-65
2023/06/09 21:46:35;;;;;;;6.40;4.47;;;;;;;;;;12984686;19;20010;-64
2023/06/09 21:50:53;;;;;;;5.10;3.83;;;;;;;;;;12983077;19;20474;-64
2023/06/09 21:55:12;;;;;;;9.52;4.05;;;;;;;;;;12983659;19;20010;-65
2023/06/09 21:59:30;;;;;;;5.30;4.35;;;;;;;;;;12983558;19;20035;-64
2023/06/09 22:03:47;;;;;;;5.03;3.63;;;;;;;;;;12983381;19;20007;-65
2023/06/09 22:08:06;;;;;;;9.25;4.03;;;;;;;;;;12982224;19;20014;-66
2023/06/09 22:12:32;;;;;;;5.78;3.90;;;;;;;;;;12982087;19;20010;-65
2023/06/09 22:16:52;;;;;;;4.22;3.47;;;;;;;;;;12983357;19;20026;-64
2023/06/09 22:21:12;;;;;;;5.82;3.47;;;;;;;;;;12981879;19;20360;-65
2023/06/09 22:25:32;;;;;;;5.78;4.45;;;;;;;;;;12967610;19;20010;-64
2023/06/09 22:29:50;;;;;;;8.98;4.00;;;;;;;;;;12982175;19;20021;-64
2023/06/09 22:34:09;;;;;;;4.07;3.50;;;;;;;;;;12981164;19;20599;-65
2023/06/09 22:38:26;;;;;;;;;;;;;;;;;;12982610;19;20014;-64
2023/06/09 22:42:45;;;;;;;5.85;3.78;;;;;;;;;;12980138;19;19914;-65
2023/06/09 22:47:03;;;;;;;;;;;;;;;;;;12980758;19;20019;-65
2023/06/09 22:51:21;;;;;;;6.63;4.05;;;;;;;;;;12981508;19;20409;-65
2023/06/09 22:55:41;;;;;;;6.00;4.25;;;;;;;;;;12981240;19;21257;-65
2023/06/09 22:59:59;;;;;;;5.30;3.60;;;;;;;;;;12981636;19;20018;-64
2023/06/09 23:04:17;;;;;;;5.25;3.97;;;;;;;;;;12987601;19;20480;-65
2023/06/09 23:08:35;;;;;;;;;;;;;;;;;;12995081;19;20465;-64
2023/06/09 23:12:52;;;;;;;5.03;3.80;;;;;;;;;;12992420;19;19919;-65
2023/06/09 23:17:10;;;;;;;4.65;3.72;;;;;;;;;;12993790;19;20014;-65
2023/06/09 23:21:28;;;;;;;5.60;4.07;;;;;;;;;;12993379;19;20026;-65
2023/06/09 23:25:47;;;;;;;6.03;4.35;;;;;;;;;;12992052;19;20357;-65
2023/06/09 23:30:08;;;;;;;6.13;4.43;;;;;;;;;;12992414;19;20025;-64
2023/06/09 23:34:26;;;;;;;8.57;4.90;;;;;;;;;;12991400;19;20018;-65
2023/06/09 23:38:45;;;;;;;6.68;4.82;;;;;;;;;;12991410;19;20022;-65
2023/06/09 23:43:04;;;;;;;5.47;4.47;;;;;;;;;;12989586;19;20010;-65
2023/06/09 23:47:22;;;;;;;;;;;;;;;;;;12992169;19;20474;-65
2023/06/09 23:51:40;;;;;;;5.35;4.82;;;;;;;;;;12991709;19;20331;-64
2023/06/09 23:55:58;;;;;;;6.60;4.57;;;;;;;;;;12990742;19;20010;-65
